Little's Farm

CA-0442 · 安大略, 加拿大

罗盘
风向 的 风向 240°
风: 9 kt, 3 beaufort

添加一条跑道以查看侧风和逆风信息。

添置 跑道
0 1.000 2.000 3.000 4.000 5.000
没有云
METAR CYYZ 270200Z 24009KT 15SM SKC 06/M01 A2987 RMK SLP121

METAR Little's Farm - CA-0442

Little's Farm是,加拿大中的小机场。 该领域的国际民航组织标志是CA-0442.

这份报告是针对2022年11月26日 21:00, 当地时间在多倫多皮爾遜國際機場进行的。

机场观察

风向为240°,速度为9 kt。

可见度为15 mi。

有没有云。 没有观察到天花板。

温度为6 °C,阵风为1 °C。 露点为-1 °C,相对湿度为61%。 海平面上的气压为29,87 inHg (QNH)。

白天

今天,太阳从07:28升起,在16:44降落。 这适用于Little's Farm,世界夏令时可能有所不同。 当地时间与世界标准时间之间的时差为-5 小时。 当前,没有夏令时有效。

公司介绍

我们没有关于这个机场的公司信息。

体会

到Vliegles.nl去找飞行课程,跳伞和其他飞行体验。 浏览页面,了解Little's Farm附近所有可用的活动。 你也可以使用搜索功能来寻找你所在地附近的特定飞行课程、跳伞或其他飞行体验。

乌云

- SKC 没有云

温度 & 天气

温度 6 °C
露点 -1 °C
相对湿度 61%
风寒 1 °C
Kp-index 3 (0-9)

评论

SLP121海平面压力为29,89 inHg (29,89 inHg)

白天

日出
07:27 (9:49)
中午
12:06
日落
16:44

小工具

你想在你的网站上有一个关于Little's Farm的当前航空天气(METAR)的小部件吗?

显示HTML代码

我们和第三方通过cookies跟踪您在我们网站上的互联网行为。如果你继续,我们认为你同意我们的饼干政策